createdAt,value
2022-11-30T00:01:20.664Z,12.96
2022-11-30T00:03:47.908Z,12.85
2022-11-30T00:06:17.242Z,12.92
2022-11-30T00:08:44.271Z,12.89
2022-11-30T00:11:18.213Z,12.89
2022-11-30T00:13:45.728Z,12.88
2022-11-30T00:16:12.547Z,12.86
2022-11-30T00:18:39.652Z,12.84
2022-11-30T00:21:10.885Z,12.83
2022-11-30T00:23:38.874Z,12.70
2022-11-30T00:26:08.277Z,12.78
2022-11-30T00:28:36.211Z,12.77
2022-11-30T00:31:05.825Z,12.77
2022-11-30T00:33:34.491Z,12.74
2022-11-30T00:36:22.949Z,12.73
2022-11-30T00:38:51.603Z,12.72
2022-11-30T00:41:19.921Z,12.71
2022-11-30T00:43:46.890Z,12.60
2022-11-30T00:46:14.698Z,12.69
2022-11-30T00:48:42.265Z,12.69
2022-11-30T00:51:10.697Z,12.58
2022-11-30T00:53:41.317Z,12.58
2022-11-30T00:56:09.192Z,12.66
2022-11-30T00:58:36.457Z,12.64
2022-11-30T01:01:03.509Z,12.62
2022-11-30T01:03:30.677Z,12.53
2022-11-30T01:06:05.658Z,12.51
2022-11-30T01:08:32.889Z,12.58
2022-11-30T01:11:07.393Z,12.58
2022-11-30T01:13:34.413Z,12.57
2022-11-30T01:16:01.316Z,12.56
2022-11-30T01:18:28.216Z,12.56
2022-11-30T01:20:55.111Z,12.55
2022-11-30T01:23:22.029Z,12.53
2022-11-30T01:25:55.859Z,12.53
2022-11-30T01:28:22.883Z,12.51
2022-11-30T01:30:57.939Z,12.52
2022-11-30T01:33:25.075Z,12.52
2022-11-30T01:36:10.127Z,12.42
2022-11-30T01:38:39.954Z,12.49
2022-11-30T01:41:08.144Z,12.49
2022-11-30T01:43:40.964Z,12.40
2022-11-30T01:46:40.244Z,12.47
2022-11-30T01:49:31.342Z,12.38
2022-11-30T01:52:03.799Z,12.45
2022-11-30T01:54:37.039Z,12.44
2022-11-30T01:57:20.293Z,12.45
2022-11-30T01:59:50.626Z,12.35
2022-11-30T02:02:25.322Z,12.43
2022-11-30T02:04:52.208Z,12.43
2022-11-30T02:07:19.160Z,12.41
2022-11-30T02:09:46.129Z,12.42
2022-11-30T02:12:26.816Z,12.40
2022-11-30T02:14:59.075Z,12.40
2022-11-30T02:17:34.544Z,12.39
2022-11-30T02:20:19.696Z,12.39
2022-11-30T02:23:05.032Z,12.29
2022-11-30T02:25:55.245Z,12.37
2022-11-30T02:28:40.824Z,12.37
2022-11-30T02:31:12.046Z,12.35
2022-11-30T02:33:41.370Z,12.36
2022-11-30T02:36:10.180Z,12.28
2022-11-30T02:38:38.463Z,12.33
2022-11-30T02:41:05.428Z,12.24
2022-11-30T02:43:33.987Z,12.32
2022-11-30T02:46:30.608Z,12.33
2022-11-30T02:49:06.774Z,12.33
2022-11-30T02:51:35.992Z,12.24
2022-11-30T02:54:03.384Z,12.22
2022-11-30T02:56:30.918Z,12.31
2022-11-30T02:58:57.788Z,12.24
2022-11-30T03:01:25.948Z,12.22
2022-11-30T03:03:52.892Z,12.31
2022-11-30T03:06:19.713Z,12.22
2022-11-30T03:08:46.540Z,12.29
2022-11-30T03:11:13.371Z,12.29
2022-11-30T03:13:40.207Z,12.31
2022-11-30T03:16:12.280Z,12.30
2022-11-30T03:18:39.797Z,12.28
2022-11-30T03:21:08.191Z,12.29
2022-11-30T03:23:35.860Z,12.30
2022-11-30T03:26:04.195Z,12.23
2022-11-30T03:28:31.083Z,12.32
2022-11-30T03:30:58.005Z,12.22
2022-11-30T03:33:25.342Z,12.30
2022-11-30T03:36:18.494Z,12.30
2022-11-30T03:38:45.376Z,12.30
2022-11-30T03:41:14.600Z,12.31
2022-11-30T03:43:41.467Z,12.32
2022-11-30T03:46:08.395Z,12.23
2022-11-30T03:48:38.554Z,12.30
2022-11-30T03:51:06.039Z,12.32
2022-11-30T03:53:32.857Z,12.31
2022-11-30T03:56:02.363Z,12.23
2022-11-30T03:58:29.747Z,12.32
2022-11-30T04:01:09.871Z,12.31
2022-11-30T04:03:38.110Z,12.32
2022-11-30T04:06:06.461Z,12.33
2022-11-30T04:08:33.729Z,12.32
2022-11-30T04:11:02.376Z,12.32
2022-11-30T04:13:30.408Z,12.24
2022-11-30T04:15:57.388Z,12.32
2022-11-30T04:18:26.930Z,12.33
2022-11-30T04:20:55.554Z,12.30
2022-11-30T04:23:24.196Z,12.28
2022-11-30T04:25:52.153Z,12.26
2022-11-30T04:28:19.524Z,12.26
2022-11-30T04:30:46.897Z,12.25
2022-11-30T04:33:15.610Z,12.24
2022-11-30T04:35:46.143Z,12.14
2022-11-30T04:38:13.235Z,12.21
2022-11-30T04:40:41.308Z,12.22
2022-11-30T04:43:08.826Z,12.20
2022-11-30T04:45:36.222Z,12.21
2022-11-30T04:48:03.924Z,12.21
2022-11-30T04:50:30.747Z,12.20
2022-11-30T04:52:57.732Z,12.20
2022-11-30T04:55:25.420Z,12.20
2022-11-30T04:57:52.532Z,12.18
2022-11-30T05:00:20.399Z,12.19
2022-11-30T05:02:52.450Z,12.18
2022-11-30T05:05:20.534Z,12.19
2022-11-30T05:07:59.198Z,12.18
2022-11-30T05:10:27.413Z,12.08
2022-11-30T05:12:54.518Z,12.17
2022-11-30T05:15:21.951Z,12.16
2022-11-30T05:17:49.013Z,12.16
2022-11-30T05:20:16.204Z,12.15
2022-11-30T05:22:43.102Z,12.07
2022-11-30T05:25:10.152Z,12.15
2022-11-30T05:27:37.849Z,12.14
2022-11-30T05:30:06.843Z,12.15
2022-11-30T05:32:33.671Z,12.14
2022-11-30T05:35:00.459Z,12.14
2022-11-30T05:37:27.353Z,12.14
2022-11-30T05:39:54.205Z,12.14
2022-11-30T05:42:21.354Z,12.14
2022-11-30T05:44:48.518Z,12.04
2022-11-30T05:47:15.778Z,12.13
2022-11-30T05:49:42.737Z,12.12
2022-11-30T05:52:09.562Z,12.14
2022-11-30T05:54:36.395Z,12.24
2022-11-30T05:57:03.383Z,12.21
2022-11-30T05:59:30.234Z,12.35
2022-11-30T06:01:57.257Z,12.28
2022-11-30T06:04:24.247Z,12.41
2022-11-30T06:06:52.516Z,12.40
2022-11-30T06:09:19.341Z,12.32
2022-11-30T06:11:46.198Z,12.26
2022-11-30T06:14:13.057Z,12.26
2022-11-30T06:16:40.175Z,12.14
2022-11-30T06:19:07.398Z,12.26
2022-11-30T06:21:34.570Z,12.29
2022-11-30T06:24:01.389Z,12.30
2022-11-30T06:26:28.458Z,12.33
2022-11-30T06:28:55.486Z,12.29
2022-11-30T06:31:22.461Z,12.35
2022-11-30T06:33:49.466Z,12.29
2022-11-30T06:36:21.680Z,12.31
2022-11-30T06:38:48.471Z,12.32
2022-11-30T06:41:15.393Z,12.42
2022-11-30T06:43:42.356Z,12.43
2022-11-30T06:46:09.875Z,12.45
2022-11-30T06:48:36.922Z,12.40
2022-11-30T06:51:08.396Z,12.45
2022-11-30T06:53:35.699Z,12.47
2022-11-30T06:56:10.633Z,12.49
2022-11-30T06:58:39.714Z,12.48
2022-11-30T07:01:08.939Z,12.46
2022-11-30T07:03:36.770Z,12.40
2022-11-30T07:06:08.491Z,12.41
2022-11-30T07:08:35.468Z,12.42
2022-11-30T07:11:02.503Z,12.46
2022-11-30T07:13:30.490Z,12.51
2022-11-30T07:15:57.460Z,12.50
2022-11-30T07:18:30.169Z,12.51
2022-11-30T07:21:03.644Z,12.51
2022-11-30T07:23:54.300Z,12.51
2022-11-30T07:26:22.864Z,12.54
2022-11-30T07:28:55.008Z,12.60
2022-11-30T07:31:26.661Z,12.56
2022-11-30T07:33:54.110Z,12.59
2022-11-30T07:36:23.856Z,12.70
2022-11-30T07:38:50.809Z,12.62
2022-11-30T07:41:18.391Z,12.77
2022-11-30T07:43:45.368Z,12.72
2022-11-30T07:46:14.383Z,12.54
2022-11-30T07:48:42.245Z,12.45
2022-11-30T07:51:13.640Z,12.34
2022-11-30T07:53:41.079Z,12.32
2022-11-30T07:56:10.848Z,12.23
2022-11-30T07:58:38.542Z,12.31
2022-11-30T08:01:11.326Z,12.29
2022-11-30T08:03:38.513Z,12.19
2022-11-30T08:06:13.990Z,12.19
2022-11-30T08:08:43.792Z,12.25
2022-11-30T08:11:14.396Z,12.14
2022-11-30T08:13:41.894Z,12.21
2022-11-30T08:16:15.600Z,12.20
2022-11-30T08:18:43.050Z,12.21
2022-11-30T08:21:12.048Z,12.18
2022-11-30T08:23:41.544Z,12.07
2022-11-30T08:26:19.256Z,12.16
2022-11-30T08:28:47.818Z,12.15
2022-11-30T08:31:24.599Z,12.05
2022-11-30T08:33:58.850Z,12.13
2022-11-30T08:36:27.413Z,12.11
2022-11-30T08:38:54.504Z,12.12
2022-11-30T08:41:23.251Z,12.10
2022-11-30T08:43:51.567Z,12.08
2022-11-30T08:46:49.706Z,12.09
2022-11-30T08:54:45.642Z,12.05
2022-11-30T08:57:14.194Z,11.97
2022-11-30T08:59:41.160Z,12.06
2022-11-30T09:02:11.220Z,12.04
2022-11-30T09:04:38.241Z,12.05
2022-11-30T09:07:05.611Z,12.04
2022-11-30T09:09:33.191Z,11.95
2022-11-30T09:12:00.448Z,12.03
2022-11-30T09:14:27.679Z,12.04
2022-11-30T09:16:55.579Z,12.03
2022-11-30T09:19:22.739Z,12.04
2022-11-30T09:21:52.103Z,12.03
2022-11-30T09:24:19.655Z,11.92
2022-11-30T09:26:46.828Z,12.00
2022-11-30T09:29:13.787Z,12.01
2022-11-30T09:31:40.881Z,11.99
2022-11-30T09:34:08.039Z,12.01
2022-11-30T09:36:36.897Z,12.02
2022-11-30T09:39:03.958Z,12.00
2022-11-30T09:41:45.765Z,11.99
2022-11-30T09:44:46.352Z,12.00
2022-11-30T09:47:38.322Z,12.00
2022-11-30T09:50:15.819Z,11.99
2022-11-30T09:53:32.437Z,11.90
2022-11-30T09:56:00.949Z,11.98
2022-11-30T09:58:43.085Z,11.98
2022-11-30T10:01:19.061Z,11.98
2022-11-30T10:03:47.317Z,11.89
2022-11-30T10:06:32.205Z,11.89
2022-11-30T10:09:25.685Z,11.88
2022-11-30T10:11:59.064Z,11.97
2022-11-30T10:15:00.162Z,11.96
2022-11-30T10:17:30.029Z,11.96
2022-11-30T10:20:12.723Z,11.96
2022-11-30T10:22:56.242Z,11.95
2022-11-30T10:25:24.800Z,11.96
2022-11-30T10:27:53.505Z,11.95
2022-11-30T10:30:22.991Z,11.95
2022-11-30T10:32:55.694Z,11.96
2022-11-30T10:35:37.639Z,11.95
2022-11-30T10:38:28.255Z,11.87
2022-11-30T10:41:05.648Z,11.96
2022-11-30T10:44:11.099Z,11.85
2022-11-30T10:46:44.056Z,11.94
2022-11-30T10:49:19.052Z,11.87
2022-11-30T10:51:52.859Z,11.95
2022-11-30T10:54:23.242Z,11.93
2022-11-30T10:56:50.212Z,11.92
2022-11-30T10:59:22.924Z,11.93
2022-11-30T11:01:50.408Z,11.92
2022-11-30T11:04:25.680Z,11.92
2022-11-30T11:06:59.488Z,11.92
2022-11-30T11:09:50.629Z,11.92
2022-11-30T11:12:21.792Z,11.83
2022-11-30T11:14:48.919Z,11.91
2022-11-30T11:17:18.759Z,11.91
2022-11-30T11:19:48.292Z,11.91
2022-11-30T11:22:17.081Z,11.82
2022-11-30T11:24:44.939Z,11.88
2022-11-30T11:27:29.890Z,11.89
2022-11-30T11:30:09.417Z,11.90
2022-11-30T11:32:36.430Z,11.90
2022-11-30T11:35:03.683Z,11.90
2022-11-30T11:37:34.032Z,11.89
2022-11-30T11:40:08.906Z,11.90
2022-11-30T11:43:00.749Z,11.87
2022-11-30T11:45:35.382Z,11.88
2022-11-30T11:48:28.879Z,11.80
2022-11-30T11:51:08.639Z,11.88
2022-11-30T11:53:44.048Z,11.88
2022-11-30T11:56:22.677Z,11.87
2022-11-30T11:58:58.436Z,11.88
2022-11-30T12:02:06.125Z,11.89
2022-11-30T12:04:56.804Z,11.86
2022-11-30T12:07:32.946Z,11.88
2022-11-30T12:13:18.249Z,11.88
2022-11-30T12:15:51.109Z,11.89
2022-11-30T12:18:25.374Z,11.86
2022-11-30T12:21:07.993Z,11.86
2022-11-30T12:24:04.188Z,11.87
2022-11-30T12:26:33.946Z,11.86
2022-11-30T12:29:18.818Z,11.86
2022-11-30T12:32:01.883Z,11.85
2022-11-30T12:34:43.239Z,11.86
2022-11-30T12:37:47.346Z,11.82
2022-11-30T12:40:20.891Z,11.84
2022-11-30T12:42:53.549Z,11.83
2022-11-30T12:45:37.792Z,11.83
2022-11-30T12:48:35.424Z,11.83
2022-11-30T12:51:26.411Z,11.82
2022-11-30T12:54:23.282Z,11.82
2022-11-30T12:57:01.679Z,11.80
2022-11-30T13:00:09.573Z,11.80
2022-11-30T13:02:48.478Z,11.80
2022-11-30T13:05:30.952Z,11.80
2022-11-30T13:08:26.747Z,11.80
2022-11-30T13:11:00.499Z,11.72
2022-11-30T13:13:32.627Z,11.79
2022-11-30T13:16:02.356Z,11.79
2022-11-30T13:18:30.596Z,11.78
2022-11-30T13:21:07.220Z,11.78
2022-11-30T13:23:48.979Z,11.78
2022-11-30T13:26:31.359Z,11.68
2022-11-30T13:29:06.262Z,11.78
2022-11-30T13:31:48.667Z,11.80
2022-11-30T13:34:33.792Z,11.78
2022-11-30T13:37:11.923Z,11.78
2022-11-30T13:39:58.473Z,11.79
2022-11-30T13:42:35.946Z,11.68
2022-11-30T13:45:15.449Z,11.71
2022-11-30T13:47:53.061Z,11.70
2022-11-30T13:50:26.285Z,11.78
2022-11-30T13:52:59.305Z,11.70
2022-11-30T13:56:17.424Z,11.70
2022-11-30T13:59:29.326Z,11.79
2022-11-30T14:02:33.607Z,11.78
2022-11-30T14:05:18.594Z,11.76
2022-11-30T14:07:46.831Z,11.78
2022-11-30T14:10:29.459Z,11.78
2022-11-30T14:13:05.808Z,11.79
2022-11-30T14:15:38.908Z,11.77
2022-11-30T14:18:21.963Z,11.78
2022-11-30T14:20:52.060Z,11.77
2022-11-30T14:23:28.094Z,11.77
2022-11-30T14:25:58.091Z,11.75
2022-11-30T14:28:33.363Z,11.77
2022-11-30T14:31:01.000Z,11.77
2022-11-30T14:33:40.112Z,11.79
2022-11-30T14:36:08.668Z,11.79
2022-11-30T14:38:41.428Z,11.80
2022-11-30T14:41:21.597Z,11.73
2022-11-30T14:44:03.567Z,11.80
2022-11-30T14:46:33.995Z,11.82
2022-11-30T14:49:15.496Z,11.75
2022-11-30T14:51:45.517Z,11.81
2022-11-30T14:54:17.156Z,11.82
2022-11-30T14:56:49.192Z,11.82
2022-11-30T14:59:38.021Z,11.82
2022-11-30T15:02:12.337Z,11.81
2022-11-30T15:04:39.338Z,11.81
2022-11-30T15:07:13.737Z,11.83
2022-11-30T15:09:43.862Z,11.82
2022-11-30T15:12:11.074Z,11.73
2022-11-30T15:14:38.119Z,11.74
2022-11-30T15:17:14.941Z,11.82
2022-11-30T15:19:48.870Z,11.82
2022-11-30T15:22:23.026Z,11.81
2022-11-30T15:24:50.550Z,11.81
2022-11-30T15:27:24.114Z,11.81
2022-11-30T15:30:00.243Z,11.81
2022-11-30T15:32:27.736Z,11.81
2022-11-30T15:34:57.740Z,11.81
2022-11-30T15:37:33.072Z,11.82
2022-11-30T15:40:02.592Z,11.82
2022-11-30T15:42:40.793Z,11.81
2022-11-30T15:45:23.600Z,11.80
2022-11-30T15:47:52.375Z,11.78
2022-11-30T15:50:31.324Z,11.80
2022-11-30T15:53:04.131Z,11.72
2022-11-30T15:55:45.559Z,11.80
2022-11-30T15:58:30.960Z,11.81
2022-11-30T16:01:01.059Z,11.81
2022-11-30T16:03:28.017Z,11.80
2022-11-30T16:06:00.598Z,11.81
2022-11-30T16:08:28.562Z,11.80
2022-11-30T16:10:55.590Z,11.80
2022-11-30T16:13:23.862Z,11.79
2022-11-30T16:15:52.328Z,11.81
2022-11-30T16:18:25.634Z,11.81
2022-11-30T16:20:56.757Z,11.81
2022-11-30T16:23:23.660Z,11.79
2022-11-30T16:25:51.145Z,11.79
2022-11-30T16:28:20.321Z,11.80
2022-11-30T16:30:48.651Z,11.81
2022-11-30T16:33:16.692Z,11.80
2022-11-30T16:36:01.458Z,11.71
2022-11-30T16:38:29.080Z,11.81
2022-11-30T16:40:56.463Z,11.82
2022-11-30T16:43:26.017Z,11.80
2022-11-30T16:45:53.016Z,11.81
2022-11-30T16:48:20.434Z,11.79
2022-11-30T16:50:47.473Z,11.79
2022-11-30T16:53:15.444Z,11.80
2022-11-30T16:55:43.073Z,11.76
2022-11-30T16:58:10.028Z,11.63
2022-11-30T17:00:39.801Z,11.70
2022-11-30T17:03:24.255Z,11.72
2022-11-30T17:05:51.208Z,11.78
2022-11-30T17:08:18.282Z,11.74
2022-11-30T17:10:45.328Z,11.81
2022-11-30T17:13:15.988Z,11.71
2022-11-30T17:15:42.972Z,11.54
2022-11-30T17:18:10.481Z,11.95
2022-11-30T17:20:38.172Z,11.96
2022-11-30T17:23:06.467Z,11.96
2022-11-30T17:25:33.687Z,11.98
2022-11-30T17:28:01.050Z,12.00
2022-11-30T17:30:28.451Z,12.01
2022-11-30T17:32:55.817Z,12.02
2022-11-30T17:35:22.794Z,12.05
2022-11-30T17:37:50.068Z,12.02
2022-11-30T17:40:17.447Z,12.05
2022-11-30T17:42:44.828Z,12.07
2022-11-30T17:45:12.264Z,12.08
2022-11-30T17:47:39.587Z,12.07
2022-11-30T17:50:08.008Z,11.99
2022-11-30T17:52:35.367Z,12.07
2022-11-30T17:55:02.681Z,12.10
2022-11-30T17:57:29.730Z,12.04
2022-11-30T17:59:56.945Z,12.18
2022-11-30T18:02:24.804Z,12.22
2022-11-30T18:04:53.175Z,12.18
2022-11-30T18:07:21.937Z,12.30
2022-11-30T18:09:52.662Z,12.26
2022-11-30T18:12:35.328Z,12.35
2022-11-30T18:15:02.655Z,12.40
2022-11-30T18:17:32.103Z,12.52
2022-11-30T18:20:03.749Z,12.50
2022-11-30T18:22:38.596Z,12.65
2022-11-30T18:25:06.108Z,12.74
2022-11-30T18:27:33.621Z,12.81
2022-11-30T18:30:02.013Z,12.77
2022-11-30T18:32:33.847Z,12.92
2022-11-30T18:35:01.082Z,12.93
2022-11-30T18:37:28.753Z,12.94
2022-11-30T18:39:56.052Z,13.00
2022-11-30T18:42:23.261Z,13.06
2022-11-30T18:44:50.704Z,13.10
2022-11-30T18:47:17.933Z,13.10
2022-11-30T18:49:44.991Z,13.13
2022-11-30T18:52:11.931Z,13.23
2022-11-30T18:54:39.158Z,13.25
2022-11-30T18:57:06.406Z,13.45
2022-11-30T18:59:33.666Z,13.51
2022-11-30T19:02:01.578Z,13.60
2022-11-30T19:04:28.905Z,13.65
2022-11-30T19:06:55.953Z,13.71
2022-11-30T19:09:24.295Z,13.75
2022-11-30T19:11:52.709Z,13.80
2022-11-30T19:14:20.615Z,13.84
2022-11-30T19:16:48.876Z,13.87
2022-11-30T19:19:16.365Z,13.90
2022-11-30T19:21:48.209Z,13.92
2022-11-30T19:24:16.768Z,13.93
2022-11-30T19:26:44.137Z,13.95
2022-11-30T19:29:12.534Z,13.85
2022-11-30T19:31:40.041Z,13.77
2022-11-30T19:34:12.986Z,13.72
2022-11-30T19:36:41.107Z,13.66
2022-11-30T19:39:10.298Z,13.55
2022-11-30T19:41:37.597Z,13.58
2022-11-30T19:44:05.947Z,13.55
2022-11-30T19:46:34.982Z,13.53
2022-11-30T19:49:02.664Z,13.54
2022-11-30T19:51:31.573Z,13.54
2022-11-30T19:54:01.871Z,13.51
2022-11-30T19:56:31.719Z,13.53
2022-11-30T19:59:04.440Z,13.52
2022-11-30T20:01:34.925Z,13.46
2022-11-30T20:04:02.842Z,13.61
2022-11-30T20:06:37.861Z,13.71
2022-11-30T20:09:07.002Z,13.76
2022-11-30T20:11:34.737Z,13.82
2022-11-30T20:14:02.077Z,13.86
2022-11-30T20:16:29.688Z,13.89
2022-11-30T20:19:01.486Z,13.87
2022-11-30T20:21:32.321Z,13.96
2022-11-30T20:24:02.278Z,14.01
2022-11-30T20:26:39.000Z,14.05
2022-11-30T20:29:08.828Z,14.00
2022-11-30T20:31:37.565Z,14.09
2022-11-30T20:34:05.656Z,14.03
2022-11-30T20:36:32.939Z,14.12
2022-11-30T20:39:00.517Z,14.15
2022-11-30T20:41:35.597Z,14.19
2022-11-30T20:44:02.906Z,14.21
2022-11-30T20:46:36.021Z,14.23
2022-11-30T20:49:05.038Z,14.24
2022-11-30T20:51:35.060Z,14.29
2022-11-30T20:54:05.955Z,14.30
2022-11-30T20:56:35.690Z,14.28
2022-11-30T20:59:05.409Z,14.25
2022-11-30T21:01:34.667Z,14.30
2022-11-30T21:04:01.980Z,14.34
2022-11-30T21:06:33.286Z,14.38
2022-11-30T21:09:00.679Z,14.33
2022-11-30T21:11:29.433Z,14.34
2022-11-30T21:13:57.520Z,14.37
2022-11-30T21:16:28.913Z,14.46
2022-11-30T21:18:58.774Z,14.48
2022-11-30T21:21:32.093Z,14.48
2022-11-30T21:24:01.592Z,14.49
2022-11-30T21:26:34.515Z,14.39
2022-11-30T21:29:07.403Z,14.39
2022-11-30T21:31:35.235Z,14.45
2022-11-30T21:34:02.895Z,14.47
2022-11-30T21:36:30.183Z,14.49
2022-11-30T21:39:05.004Z,14.50
2022-11-30T21:41:35.020Z,14.51
2022-11-30T21:44:02.620Z,14.54
2022-11-30T21:46:30.397Z,14.52
2022-11-30T21:48:57.605Z,14.50
2022-11-30T21:51:27.391Z,14.54
2022-11-30T21:53:59.126Z,14.60
2022-11-30T21:56:29.286Z,14.55
2022-11-30T21:58:57.410Z,14.57
2022-11-30T22:01:35.002Z,14.56
2022-11-30T22:04:04.321Z,14.52
2022-11-30T22:06:34.399Z,14.54
2022-11-30T22:09:03.740Z,14.53
2022-11-30T22:11:31.493Z,14.54
2022-11-30T22:13:58.816Z,14.51
2022-11-30T22:16:32.432Z,14.50
2022-11-30T22:19:01.579Z,14.42
2022-11-30T22:21:30.887Z,14.50
2022-11-30T22:23:57.940Z,14.45
2022-11-30T22:26:27.296Z,14.40
2022-11-30T22:28:59.807Z,14.38
2022-11-30T22:31:38.791Z,14.32
2022-11-30T22:34:06.768Z,14.27
2022-11-30T22:36:36.897Z,14.21
2022-11-30T22:39:06.538Z,14.17
2022-11-30T22:41:34.565Z,14.12
2022-11-30T22:44:01.759Z,14.07
2022-11-30T22:46:31.465Z,13.98
2022-11-30T22:49:03.027Z,13.92
2022-11-30T22:51:32.923Z,13.88
2022-11-30T22:54:00.654Z,13.91
2022-11-30T22:56:33.877Z,13.89
2022-11-30T22:59:01.740Z,13.86
2022-11-30T23:01:32.031Z,13.84
2022-11-30T23:04:19.609Z,13.75
2022-11-30T23:06:48.773Z,13.72
2022-11-30T23:09:19.406Z,13.76
2022-11-30T23:11:46.684Z,13.71
2022-11-30T23:14:13.890Z,13.70
2022-11-30T23:16:41.098Z,13.58
2022-11-30T23:19:08.923Z,13.65
2022-11-30T23:21:41.385Z,13.54
2022-11-30T23:24:12.799Z,13.58
2022-11-30T23:26:39.872Z,13.57
2022-11-30T23:29:10.032Z,13.55
2022-11-30T23:31:39.898Z,13.53
2022-11-30T23:34:09.300Z,13.51
2022-11-30T23:36:36.567Z,13.49
2022-11-30T23:39:07.732Z,13.47
2022-11-30T23:41:34.556Z,13.45
2022-11-30T23:44:02.033Z,13.42
2022-11-30T23:46:28.979Z,13.41
2022-11-30T23:48:56.119Z,13.38
2022-11-30T23:51:24.170Z,13.35
2022-11-30T23:53:51.180Z,13.26
2022-11-30T23:56:20.174Z,13.33
2022-11-30T23:58:47.628Z,13.24
